sensor_id;sensor_type;location;lat;lon;timestamp;P1;durP1;ratioP1;P2;durP2;ratioP2
54191;SDS011;40101;53.002;6.488;2023-07-30T00:01:38;8.00;;;3.60;;
54191;SDS011;40101;53.002;6.488;2023-07-30T00:04:03;8.23;;;3.78;;
54191;SDS011;40101;53.002;6.488;2023-07-30T00:06:29;9.70;;;3.83;;
54191;SDS011;40101;53.002;6.488;2023-07-30T00:08:54;10.75;;;4.93;;
54191;SDS011;40101;53.002;6.488;2023-07-30T00:11:20;9.15;;;2.90;;
54191;SDS011;40101;53.002;6.488;2023-07-30T00:13:46;6.30;;;3.53;;
54191;SDS011;40101;53.002;6.488;2023-07-30T00:16:11;8.45;;;3.63;;
54191;SDS011;40101;53.002;6.488;2023-07-30T00:18:37;13.07;;;4.22;;
54191;SDS011;40101;53.002;6.488;2023-07-30T00:21:03;7.90;;;4.00;;
54191;SDS011;40101;53.002;6.488;2023-07-30T00:23:28;9.68;;;4.22;;
54191;SDS011;40101;53.002;6.488;2023-07-30T00:25:54;7.68;;;3.40;;
54191;SDS011;40101;53.002;6.488;2023-07-30T00:28:19;11.48;;;4.07;;
54191;SDS011;40101;53.002;6.488;2023-07-30T00:30:45;12.27;;;4.38;;
54191;SDS011;40101;53.002;6.488;2023-07-30T00:33:11;8.75;;;5.07;;
54191;SDS011;40101;53.002;6.488;2023-07-30T00:35:37;15.77;;;4.78;;
54191;SDS011;40101;53.002;6.488;2023-07-30T00:38:02;9.65;;;4.22;;
54191;SDS011;40101;53.002;6.488;2023-07-30T00:40:28;7.53;;;3.95;;
54191;SDS011;40101;53.002;6.488;2023-07-30T00:42:54;11.27;;;4.50;;
54191;SDS011;40101;53.002;6.488;2023-07-30T00:45:19;11.23;;;3.90;;
54191;SDS011;40101;53.002;6.488;2023-07-30T00:47:46;12.82;;;4.60;;
54191;SDS011;40101;53.002;6.488;2023-07-30T00:50:13;12.02;;;4.47;;
54191;SDS011;40101;53.002;6.488;2023-07-30T00:52:40;11.45;;;3.97;;
54191;SDS011;40101;53.002;6.488;2023-07-30T00:55:06;11.55;;;5.30;;
54191;SDS011;40101;53.002;6.488;2023-07-30T00:57:32;14.10;;;4.53;;
54191;SDS011;40101;53.002;6.488;2023-07-30T01:00:01;12.05;;;4.72;;
54191;SDS011;40101;53.002;6.488;2023-07-30T01:02:29;16.08;;;5.35;;
54191;SDS011;40101;53.002;6.488;2023-07-30T01:04:56;10.35;;;4.18;;
54191;SDS011;40101;53.002;6.488;2023-07-30T01:07:22;9.95;;;4.60;;
54191;SDS011;40101;53.002;6.488;2023-07-30T01:09:48;19.27;;;5.70;;
54191;SDS011;40101;53.002;6.488;2023-07-30T01:12:14;24.02;;;4.63;;
54191;SDS011;40101;53.002;6.488;2023-07-30T01:14:39;14.35;;;5.32;;
54191;SDS011;40101;53.002;6.488;2023-07-30T01:17:06;14.20;;;5.18;;
54191;SDS011;40101;53.002;6.488;2023-07-30T01:19:32;16.60;;;4.53;;
54191;SDS011;40101;53.002;6.488;2023-07-30T01:21:57;15.73;;;5.50;;
54191;SDS011;40101;53.002;6.488;2023-07-30T01:24:23;13.40;;;5.35;;
54191;SDS011;40101;53.002;6.488;2023-07-30T01:26:51;20.15;;;6.45;;
54191;SDS011;40101;53.002;6.488;2023-07-30T01:29:33;13.75;;;5.22;;
54191;SDS011;40101;53.002;6.488;2023-07-30T01:32:07;15.95;;;5.25;;
54191;SDS011;40101;53.002;6.488;2023-07-30T01:34:35;17.55;;;5.38;;
54191;SDS011;40101;53.002;6.488;2023-07-30T01:37:04;16.58;;;5.45;;
54191;SDS011;40101;53.002;6.488;2023-07-30T01:39:33;16.08;;;6.30;;
54191;SDS011;40101;53.002;6.488;2023-07-30T01:42:01;13.23;;;4.72;;
54191;SDS011;40101;53.002;6.488;2023-07-30T01:44:27;22.67;;;6.20;;
54191;SDS011;40101;53.002;6.488;2023-07-30T01:46:53;17.40;;;5.50;;
54191;SDS011;40101;53.002;6.488;2023-07-30T01:49:18;14.88;;;5.53;;
54191;SDS011;40101;53.002;6.488;2023-07-30T01:51:44;18.38;;;5.68;;
54191;SDS011;40101;53.002;6.488;2023-07-30T01:54:09;16.55;;;4.93;;
54191;SDS011;40101;53.002;6.488;2023-07-30T01:56:35;14.65;;;4.78;;
54191;SDS011;40101;53.002;6.488;2023-07-30T01:59:01;16.52;;;5.53;;
54191;SDS011;40101;53.002;6.488;2023-07-30T02:01:26;20.92;;;5.07;;
54191;SDS011;40101;53.002;6.488;2023-07-30T02:03:52;12.02;;;4.50;;
54191;SDS011;40101;53.002;6.488;2023-07-30T02:06:17;14.82;;;5.03;;
54191;SDS011;40101;53.002;6.488;2023-07-30T02:08:43;15.85;;;4.50;;
54191;SDS011;40101;53.002;6.488;2023-07-30T02:11:09;19.85;;;5.30;;
54191;SDS011;40101;53.002;6.488;2023-07-30T02:13:34;14.63;;;5.22;;
54191;SDS011;40101;53.002;6.488;2023-07-30T02:16:00;16.08;;;5.50;;
54191;SDS011;40101;53.002;6.488;2023-07-30T02:18:25;18.77;;;5.93;;
54191;SDS011;40101;53.002;6.488;2023-07-30T02:20:51;16.48;;;5.78;;
54191;SDS011;40101;53.002;6.488;2023-07-30T02:23:17;20.08;;;5.47;;
54191;SDS011;40101;53.002;6.488;2023-07-30T02:25:42;17.27;;;5.53;;
54191;SDS011;40101;53.002;6.488;2023-07-30T02:28:08;20.83;;;6.20;;
54191;SDS011;40101;53.002;6.488;2023-07-30T02:30:34;15.15;;;6.93;;
54191;SDS011;40101;53.002;6.488;2023-07-30T02:33:00;22.35;;;6.38;;
54191;SDS011;40101;53.002;6.488;2023-07-30T02:35:26;21.42;;;5.88;;
54191;SDS011;40101;53.002;6.488;2023-07-30T02:37:52;17.65;;;6.13;;
54191;SDS011;40101;53.002;6.488;2023-07-30T02:40:17;16.02;;;6.78;;
54191;SDS011;40101;53.002;6.488;2023-07-30T02:42:43;19.23;;;6.45;;
54191;SDS011;40101;53.002;6.488;2023-07-30T02:45:09;20.27;;;5.47;;
54191;SDS011;40101;53.002;6.488;2023-07-30T02:47:34;14.27;;;5.13;;
54191;SDS011;40101;53.002;6.488;2023-07-30T02:50:01;16.15;;;5.13;;
54191;SDS011;40101;53.002;6.488;2023-07-30T02:52:28;22.25;;;6.63;;
54191;SDS011;40101;53.002;6.488;2023-07-30T02:54:54;19.45;;;5.50;;
54191;SDS011;40101;53.002;6.488;2023-07-30T02:57:19;18.55;;;6.90;;
54191;SDS011;40101;53.002;6.488;2023-07-30T02:59:45;20.58;;;6.50;;
54191;SDS011;40101;53.002;6.488;2023-07-30T03:02:11;15.10;;;5.72;;
54191;SDS011;40101;53.002;6.488;2023-07-30T03:04:37;15.85;;;5.25;;
54191;SDS011;40101;53.002;6.488;2023-07-30T03:07:02;13.57;;;4.20;;
54191;SDS011;40101;53.002;6.488;2023-07-30T03:09:28;15.57;;;4.97;;
54191;SDS011;40101;53.002;6.488;2023-07-30T03:11:54;17.05;;;4.70;;
54191;SDS011;40101;53.002;6.488;2023-07-30T03:14:20;14.93;;;5.00;;
54191;SDS011;40101;53.002;6.488;2023-07-30T03:16:49;10.43;;;4.70;;
54191;SDS011;40101;53.002;6.488;2023-07-30T03:19:14;15.20;;;5.28;;
54191;SDS011;40101;53.002;6.488;2023-07-30T03:21:41;15.48;;;5.20;;
54191;SDS011;40101;53.002;6.488;2023-07-30T03:24:06;20.60;;;4.47;;
54191;SDS011;40101;53.002;6.488;2023-07-30T03:26:32;15.18;;;4.85;;
54191;SDS011;40101;53.002;6.488;2023-07-30T03:28:58;16.13;;;5.13;;
54191;SDS011;40101;53.002;6.488;2023-07-30T03:31:24;16.77;;;4.53;;
54191;SDS011;40101;53.002;6.488;2023-07-30T03:33:49;9.55;;;4.15;;
54191;SDS011;40101;53.002;6.488;2023-07-30T03:36:15;16.10;;;4.22;;
54191;SDS011;40101;53.002;6.488;2023-07-30T03:38:42;16.77;;;3.65;;
54191;SDS011;40101;53.002;6.488;2023-07-30T03:41:08;13.60;;;4.75;;
54191;SDS011;40101;53.002;6.488;2023-07-30T03:43:35;10.07;;;3.05;;
54191;SDS011;40101;53.002;6.488;2023-07-30T03:46:01;15.25;;;5.50;;
54191;SDS011;40101;53.002;6.488;2023-07-30T03:48:26;16.23;;;4.22;;
54191;SDS011;40101;53.002;6.488;2023-07-30T03:50:53;12.30;;;4.30;;
54191;SDS011;40101;53.002;6.488;2023-07-30T03:53:19;12.88;;;4.40;;
54191;SDS011;40101;53.002;6.488;2023-07-30T03:55:45;12.07;;;3.85;;
54191;SDS011;40101;53.002;6.488;2023-07-30T03:58:10;11.05;;;4.45;;
54191;SDS011;40101;53.002;6.488;2023-07-30T04:00:36;9.50;;;3.78;;
54191;SDS011;40101;53.002;6.488;2023-07-30T04:03:02;9.85;;;3.63;;
54191;SDS011;40101;53.002;6.488;2023-07-30T04:05:28;13.75;;;4.80;;
54191;SDS011;40101;53.002;6.488;2023-07-30T04:07:54;11.75;;;3.10;;
54191;SDS011;40101;53.002;6.488;2023-07-30T04:10:20;12.98;;;3.58;;
54191;SDS011;40101;53.002;6.488;2023-07-30T04:12:46;16.85;;;3.80;;
54191;SDS011;40101;53.002;6.488;2023-07-30T04:15:11;16.33;;;4.03;;
54191;SDS011;40101;53.002;6.488;2023-07-30T04:17:37;11.13;;;4.35;;
54191;SDS011;40101;53.002;6.488;2023-07-30T04:20:03;11.75;;;3.75;;
54191;SDS011;40101;53.002;6.488;2023-07-30T04:22:30;11.30;;;3.90;;
54191;SDS011;40101;53.002;6.488;2023-07-30T04:24:55;13.18;;;4.75;;
54191;SDS011;40101;53.002;6.488;2023-07-30T04:27:21;11.02;;;3.65;;
54191;SDS011;40101;53.002;6.488;2023-07-30T04:29:47;18.20;;;4.43;;
54191;SDS011;40101;53.002;6.488;2023-07-30T04:32:13;17.88;;;3.85;;
54191;SDS011;40101;53.002;6.488;2023-07-30T04:34:39;15.73;;;4.18;;
54191;SDS011;40101;53.002;6.488;2023-07-30T04:37:05;26.40;;;5.05;;
54191;SDS011;40101;53.002;6.488;2023-07-30T04:39:34;9.45;;;3.40;;
54191;SDS011;40101;53.002;6.488;2023-07-30T04:42:01;18.85;;;5.40;;
54191;SDS011;40101;53.002;6.488;2023-07-30T04:44:27;10.80;;;3.25;;
54191;SDS011;40101;53.002;6.488;2023-07-30T04:46:52;14.07;;;4.13;;
54191;SDS011;40101;53.002;6.488;2023-07-30T04:49:18;11.15;;;3.88;;
54191;SDS011;40101;53.002;6.488;2023-07-30T04:51:44;16.27;;;3.75;;
54191;SDS011;40101;53.002;6.488;2023-07-30T04:54:10;10.50;;;3.72;;
54191;SDS011;40101;53.002;6.488;2023-07-30T04:56:36;16.75;;;4.10;;
54191;SDS011;40101;53.002;6.488;2023-07-30T04:59:02;15.05;;;4.40;;
54191;SDS011;40101;53.002;6.488;2023-07-30T05:01:28;16.95;;;3.50;;
54191;SDS011;40101;53.002;6.488;2023-07-30T05:03:54;12.82;;;3.72;;
54191;SDS011;40101;53.002;6.488;2023-07-30T05:06:20;15.25;;;3.90;;
54191;SDS011;40101;53.002;6.488;2023-07-30T05:08:46;12.13;;;3.85;;
54191;SDS011;40101;53.002;6.488;2023-07-30T05:11:11;22.17;;;4.90;;
54191;SDS011;40101;53.002;6.488;2023-07-30T05:13:37;14.57;;;4.60;;
54191;SDS011;40101;53.002;6.488;2023-07-30T05:16:03;14.43;;;3.72;;
54191;SDS011;40101;53.002;6.488;2023-07-30T05:18:28;16.23;;;4.47;;
54191;SDS011;40101;53.002;6.488;2023-07-30T05:20:54;12.13;;;4.00;;
54191;SDS011;40101;53.002;6.488;2023-07-30T05:23:20;11.43;;;4.25;;
54191;SDS011;40101;53.002;6.488;2023-07-30T05:25:46;17.08;;;4.88;;
54191;SDS011;40101;53.002;6.488;2023-07-30T05:28:11;16.65;;;4.50;;
54191;SDS011;40101;53.002;6.488;2023-07-30T05:30:37;15.07;;;4.18;;
54191;SDS011;40101;53.002;6.488;2023-07-30T05:33:03;14.00;;;4.95;;
54191;SDS011;40101;53.002;6.488;2023-07-30T05:35:29;13.65;;;3.80;;
54191;SDS011;40101;53.002;6.488;2023-07-30T05:37:55;15.00;;;4.05;;
54191;SDS011;40101;53.002;6.488;2023-07-30T05:40:20;19.13;;;4.32;;
54191;SDS011;40101;53.002;6.488;2023-07-30T05:42:46;9.27;;;3.95;;
54191;SDS011;40101;53.002;6.488;2023-07-30T05:45:12;14.02;;;4.25;;
54191;SDS011;40101;53.002;6.488;2023-07-30T05:47:38;14.77;;;4.18;;
54191;SDS011;40101;53.002;6.488;2023-07-30T05:50:04;20.48;;;5.93;;
54191;SDS011;40101;53.002;6.488;2023-07-30T05:52:30;18.70;;;4.68;;
54191;SDS011;40101;53.002;6.488;2023-07-30T05:54:56;12.02;;;4.15;;
54191;SDS011;40101;53.002;6.488;2023-07-30T05:57:21;12.68;;;3.80;;
54191;SDS011;40101;53.002;6.488;2023-07-30T05:59:47;16.73;;;4.05;;
54191;SDS011;40101;53.002;6.488;2023-07-30T06:02:13;20.42;;;4.32;;
54191;SDS011;40101;53.002;6.488;2023-07-30T06:04:38;14.88;;;4.43;;
54191;SDS011;40101;53.002;6.488;2023-07-30T06:07:04;27.50;;;4.35;;
54191;SDS011;40101;53.002;6.488;2023-07-30T06:09:30;15.15;;;4.57;;
54191;SDS011;40101;53.002;6.488;2023-07-30T06:11:56;17.08;;;4.85;;
54191;SDS011;40101;53.002;6.488;2023-07-30T06:14:25;15.88;;;5.45;;
54191;SDS011;40101;53.002;6.488;2023-07-30T06:16:51;18.55;;;4.78;;
54191;SDS011;40101;53.002;6.488;2023-07-30T06:19:18;12.27;;;5.45;;
54191;SDS011;40101;53.002;6.488;2023-07-30T06:21:44;16.50;;;4.85;;
54191;SDS011;40101;53.002;6.488;2023-07-30T06:24:10;9.00;;;3.70;;
54191;SDS011;40101;53.002;6.488;2023-07-30T06:26:35;16.60;;;5.97;;
54191;SDS011;40101;53.002;6.488;2023-07-30T06:29:01;14.40;;;5.05;;
54191;SDS011;40101;53.002;6.488;2023-07-30T06:31:27;19.05;;;4.68;;
54191;SDS011;40101;53.002;6.488;2023-07-30T06:33:53;17.85;;;4.53;;
54191;SDS011;40101;53.002;6.488;2023-07-30T06:36:18;17.65;;;4.43;;
54191;SDS011;40101;53.002;6.488;2023-07-30T06:38:44;17.08;;;5.13;;
54191;SDS011;40101;53.002;6.488;2023-07-30T06:41:10;14.68;;;4.60;;
54191;SDS011;40101;53.002;6.488;2023-07-30T06:43:35;21.70;;;4.70;;
54191;SDS011;40101;53.002;6.488;2023-07-30T06:46:03;16.55;;;4.82;;
54191;SDS011;40101;53.002;6.488;2023-07-30T06:48:29;11.05;;;4.43;;
54191;SDS011;40101;53.002;6.488;2023-07-30T06:50:55;20.42;;;5.35;;
54191;SDS011;40101;53.002;6.488;2023-07-30T06:53:20;17.10;;;5.22;;
54191;SDS011;40101;53.002;6.488;2023-07-30T06:55:46;18.42;;;4.63;;
54191;SDS011;40101;53.002;6.488;2023-07-30T06:58:11;15.95;;;5.15;;
54191;SDS011;40101;53.002;6.488;2023-07-30T07:00:37;14.05;;;4.78;;
54191;SDS011;40101;53.002;6.488;2023-07-30T07:03:03;15.75;;;4.50;;
54191;SDS011;40101;53.002;6.488;2023-07-30T07:05:29;14.75;;;4.50;;
54191;SDS011;40101;53.002;6.488;2023-07-30T07:07:55;23.17;;;5.35;;
54191;SDS011;40101;53.002;6.488;2023-07-30T07:10:21;17.27;;;5.15;;
54191;SDS011;40101;53.002;6.488;2023-07-30T07:12:47;16.23;;;3.80;;
54191;SDS011;40101;53.002;6.488;2023-07-30T07:15:12;15.68;;;3.97;;
54191;SDS011;40101;53.002;6.488;2023-07-30T07:17:38;15.75;;;3.80;;
54191;SDS011;40101;53.002;6.488;2023-07-30T07:20:05;12.18;;;3.88;;
54191;SDS011;40101;53.002;6.488;2023-07-30T07:22:31;16.65;;;4.53;;
54191;SDS011;40101;53.002;6.488;2023-07-30T07:24:57;13.73;;;3.08;;
54191;SDS011;40101;53.002;6.488;2023-07-30T07:27:23;13.52;;;3.42;;
54191;SDS011;40101;53.002;6.488;2023-07-30T07:29:49;10.05;;;3.30;;
54191;SDS011;40101;53.002;6.488;2023-07-30T07:32:16;12.95;;;3.25;;
54191;SDS011;40101;53.002;6.488;2023-07-30T07:34:45;26.25;;;4.65;;
54191;SDS011;40101;53.002;6.488;2023-07-30T07:37:12;11.75;;;2.63;;
54191;SDS011;40101;53.002;6.488;2023-07-30T07:39:40;12.52;;;2.90;;
54191;SDS011;40101;53.002;6.488;2023-07-30T07:42:06;9.35;;;2.17;;
54191;SDS011;40101;53.002;6.488;2023-07-30T07:44:32;15.40;;;2.95;;
54191;SDS011;40101;53.002;6.488;2023-07-30T07:46:57;16.83;;;3.63;;
54191;SDS011;40101;53.002;6.488;2023-07-30T07:49:23;17.20;;;2.83;;
54191;SDS011;40101;53.002;6.488;2023-07-30T07:51:49;14.43;;;3.85;;
54191;SDS011;40101;53.002;6.488;2023-07-30T07:54:14;8.43;;;2.58;;
54191;SDS011;40101;53.002;6.488;2023-07-30T07:56:40;7.55;;;2.20;;
54191;SDS011;40101;53.002;6.488;2023-07-30T07:59:06;9.13;;;3.00;;
54191;SDS011;40101;53.002;6.488;2023-07-30T08:01:31;9.02;;;2.85;;
54191;SDS011;40101;53.002;6.488;2023-07-30T08:03:57;6.78;;;2.90;;
54191;SDS011;40101;53.002;6.488;2023-07-30T08:06:23;12.02;;;3.17;;
54191;SDS011;40101;53.002;6.488;2023-07-30T08:08:49;8.85;;;2.47;;
54191;SDS011;40101;53.002;6.488;2023-07-30T08:11:14;23.10;;;3.80;;
54191;SDS011;40101;53.002;6.488;2023-07-30T08:13:40;13.13;;;2.95;;
54191;SDS011;40101;53.002;6.488;2023-07-30T08:16:06;17.90;;;2.38;;
54191;SDS011;40101;53.002;6.488;2023-07-30T08:18:31;12.00;;;3.47;;
54191;SDS011;40101;53.002;6.488;2023-07-30T08:20:57;9.00;;;2.35;;
54191;SDS011;40101;53.002;6.488;2023-07-30T08:23:24;7.45;;;1.80;;
54191;SDS011;40101;53.002;6.488;2023-07-30T08:25:50;12.38;;;2.75;;
54191;SDS011;40101;53.002;6.488;2023-07-30T08:28:15;12.50;;;2.45;;
54191;SDS011;40101;53.002;6.488;2023-07-30T08:30:41;8.27;;;2.42;;
54191;SDS011;40101;53.002;6.488;2023-07-30T08:33:07;8.70;;;1.80;;
54191;SDS011;40101;53.002;6.488;2023-07-30T08:35:32;5.55;;;2.33;;
54191;SDS011;40101;53.002;6.488;2023-07-30T08:37:58;7.13;;;1.98;;
54191;SDS011;40101;53.002;6.488;2023-07-30T08:40:24;5.95;;;2.15;;
54191;SDS011;40101;53.002;6.488;2023-07-30T08:42:53;10.70;;;2.35;;
54191;SDS011;40101;53.002;6.488;2023-07-30T08:45:19;10.90;;;2.70;;
54191;SDS011;40101;53.002;6.488;2023-07-30T08:47:45;9.43;;;2.60;;
54191;SDS011;40101;53.002;6.488;2023-07-30T08:50:11;9.40;;;2.25;;
54191;SDS011;40101;53.002;6.488;2023-07-30T08:52:37;4.47;;;1.70;;
54191;SDS011;40101;53.002;6.488;2023-07-30T08:55:05;6.55;;;1.63;;
54191;SDS011;40101;53.002;6.488;2023-07-30T08:57:31;7.00;;;2.22;;
54191;SDS011;40101;53.002;6.488;2023-07-30T09:00:08;7.75;;;2.25;;
54191;SDS011;40101;53.002;6.488;2023-07-30T09:02:43;11.52;;;3.05;;
54191;SDS011;40101;53.002;6.488;2023-07-30T09:05:13;6.90;;;1.90;;
54191;SDS011;40101;53.002;6.488;2023-07-30T09:07:39;6.38;;;1.80;;
54191;SDS011;40101;53.002;6.488;2023-07-30T09:10:05;17.27;;;2.28;;
54191;SDS011;40101;53.002;6.488;2023-07-30T09:12:32;8.60;;;2.50;;
54191;SDS011;40101;53.002;6.488;2023-07-30T09:14:59;8.13;;;2.13;;
54191;SDS011;40101;53.002;6.488;2023-07-30T09:17:25;7.30;;;2.20;;
54191;SDS011;40101;53.002;6.488;2023-07-30T09:19:51;7.75;;;1.95;;
54191;SDS011;40101;53.002;6.488;2023-07-30T09:22:24;10.18;;;2.15;;
54191;SDS011;40101;53.002;6.488;2023-07-30T09:24:50;8.18;;;1.83;;
54191;SDS011;40101;53.002;6.488;2023-07-30T09:27:19;8.10;;;1.83;;
54191;SDS011;40101;53.002;6.488;2023-07-30T09:29:57;6.22;;;1.58;;
54191;SDS011;40101;53.002;6.488;2023-07-30T09:32:28;8.73;;;2.65;;
54191;SDS011;40101;53.002;6.488;2023-07-30T09:35:04;5.70;;;2.08;;
54191;SDS011;40101;53.002;6.488;2023-07-30T09:37:32;6.00;;;1.70;;
54191;SDS011;40101;53.002;6.488;2023-07-30T09:40:01;6.57;;;1.20;;
54191;SDS011;40101;53.002;6.488;2023-07-30T09:42:27;3.50;;;0.95;;
54191;SDS011;40101;53.002;6.488;2023-07-30T09:44:53;1.92;;;0.85;;
54191;SDS011;40101;53.002;6.488;2023-07-30T09:47:25;5.07;;;1.63;;
54191;SDS011;40101;53.002;6.488;2023-07-30T09:49:51;4.30;;;1.13;;
54191;SDS011;40101;53.002;6.488;2023-07-30T09:52:18;2.55;;;1.20;;
54191;SDS011;40101;53.002;6.488;2023-07-30T09:54:44;2.80;;;1.02;;
54191;SDS011;40101;53.002;6.488;2023-07-30T09:57:10;3.70;;;1.17;;
54191;SDS011;40101;53.002;6.488;2023-07-30T09:59:36;5.10;;;1.00;;
54191;SDS011;40101;53.002;6.488;2023-07-30T10:02:03;1.05;;;0.70;;
54191;SDS011;40101;53.002;6.488;2023-07-30T10:04:29;3.92;;;1.52;;
54191;SDS011;40101;53.002;6.488;2023-07-30T10:07:04;4.85;;;1.35;;
54191;SDS011;40101;53.002;6.488;2023-07-30T10:09:35;7.10;;;1.77;;
54191;SDS011;40101;53.002;6.488;2023-07-30T10:12:09;2.83;;;0.70;;
54191;SDS011;40101;53.002;6.488;2023-07-30T10:14:37;5.22;;;1.10;;
54191;SDS011;40101;53.002;6.488;2023-07-30T10:17:03;3.63;;;1.30;;
54191;SDS011;40101;53.002;6.488;2023-07-30T10:19:29;13.77;;;1.95;;
54191;SDS011;40101;53.002;6.488;2023-07-30T10:24:41;6.47;;;1.63;;
54191;SDS011;40101;53.002;6.488;2023-07-30T10:27:25;5.72;;;1.05;;
54191;SDS011;40101;53.002;6.488;2023-07-30T10:33:09;5.70;;;1.50;;
54191;SDS011;40101;53.002;6.488;2023-07-30T10:40:42;7.82;;;2.13;;
54191;SDS011;40101;53.002;6.488;2023-07-30T10:43:26;7.80;;;1.70;;
54191;SDS011;40101;53.002;6.488;2023-07-30T10:45:53;5.70;;;1.50;;
54191;SDS011;40101;53.002;6.488;2023-07-30T10:48:18;6.88;;;1.63;;
54191;SDS011;40101;53.002;6.488;2023-07-30T10:50:54;4.82;;;2.00;;
54191;SDS011;40101;53.002;6.488;2023-07-30T10:53:19;10.48;;;2.17;;
54191;SDS011;40101;53.002;6.488;2023-07-30T10:55:45;8.10;;;1.83;;
54191;SDS011;40101;53.002;6.488;2023-07-30T10:58:11;5.55;;;1.60;;
54191;SDS011;40101;53.002;6.488;2023-07-30T11:00:38;8.32;;;2.78;;
54191;SDS011;40101;53.002;6.488;2023-07-30T11:03:04;9.10;;;2.05;;
54191;SDS011;40101;53.002;6.488;2023-07-30T11:05:30;6.70;;;1.65;;
54191;SDS011;40101;53.002;6.488;2023-07-30T11:07:55;7.85;;;1.77;;
54191;SDS011;40101;53.002;6.488;2023-07-30T11:10:21;5.10;;;1.20;;
54191;SDS011;40101;53.002;6.488;2023-07-30T11:12:48;6.65;;;1.90;;
54191;SDS011;40101;53.002;6.488;2023-07-30T11:15:17;5.90;;;1.30;;
54191;SDS011;40101;53.002;6.488;2023-07-30T11:17:42;5.80;;;1.80;;
54191;SDS011;40101;53.002;6.488;2023-07-30T11:20:26;5.75;;;1.50;;
54191;SDS011;40101;53.002;6.488;2023-07-30T11:22:52;6.25;;;1.83;;
54191;SDS011;40101;53.002;6.488;2023-07-30T11:25:18;7.68;;;1.27;;
54191;SDS011;40101;53.002;6.488;2023-07-30T11:27:45;12.63;;;1.67;;
54191;SDS011;40101;53.002;6.488;2023-07-30T11:30:11;9.80;;;2.28;;
54191;SDS011;40101;53.002;6.488;2023-07-30T11:32:37;9.23;;;2.47;;
54191;SDS011;40101;53.002;6.488;2023-07-30T11:35:03;6.13;;;1.83;;
54191;SDS011;40101;53.002;6.488;2023-07-30T11:37:30;7.03;;;1.67;;
54191;SDS011;40101;53.002;6.488;2023-07-30T11:39:57;6.93;;;1.60;;
54191;SDS011;40101;53.002;6.488;2023-07-30T11:42:22;5.00;;;1.20;;
54191;SDS011;40101;53.002;6.488;2023-07-30T11:44:48;6.18;;;1.95;;
54191;SDS011;40101;53.002;6.488;2023-07-30T11:47:20;6.57;;;1.50;;
54191;SDS011;40101;53.002;6.488;2023-07-30T11:49:57;5.07;;;1.58;;
54191;SDS011;40101;53.002;6.488;2023-07-30T11:52:23;5.82;;;1.42;;
54191;SDS011;40101;53.002;6.488;2023-07-30T11:54:59;5.50;;;1.70;;
54191;SDS011;40101;53.002;6.488;2023-07-30T11:57:33;5.57;;;1.58;;
54191;SDS011;40101;53.002;6.488;2023-07-30T11:59:59;7.57;;;1.70;;
54191;SDS011;40101;53.002;6.488;2023-07-30T12:02:25;6.30;;;1.80;;
54191;SDS011;40101;53.002;6.488;2023-07-30T12:04:51;9.52;;;1.98;;
54191;SDS011;40101;53.002;6.488;2023-07-30T12:07:23;4.97;;;1.80;;
54191;SDS011;40101;53.002;6.488;2023-07-30T12:09:49;10.40;;;1.80;;
54191;SDS011;40101;53.002;6.488;2023-07-30T12:12:15;5.30;;;1.48;;
54191;SDS011;40101;53.002;6.488;2023-07-30T12:14:45;5.45;;;1.52;;
54191;SDS011;40101;53.002;6.488;2023-07-30T12:17:19;5.45;;;1.65;;
54191;SDS011;40101;53.002;6.488;2023-07-30T12:19:44;3.88;;;1.13;;
54191;SDS011;40101;53.002;6.488;2023-07-30T12:22:10;7.95;;;1.40;;
54191;SDS011;40101;53.002;6.488;2023-07-30T12:24:36;4.18;;;1.88;;
54191;SDS011;40101;53.002;6.488;2023-07-30T12:27:01;6.20;;;1.70;;
54191;SDS011;40101;53.002;6.488;2023-07-30T12:29:27;5.60;;;1.40;;
54191;SDS011;40101;53.002;6.488;2023-07-30T12:31:53;3.80;;;0.93;;
54191;SDS011;40101;53.002;6.488;2023-07-30T12:34:21;4.93;;;1.13;;
54191;SDS011;40101;53.002;6.488;2023-07-30T12:36:48;3.90;;;1.35;;
54191;SDS011;40101;53.002;6.488;2023-07-30T12:39:13;5.47;;;1.13;;
54191;SDS011;40101;53.002;6.488;2023-07-30T12:41:39;7.13;;;1.70;;
54191;SDS011;40101;53.002;6.488;2023-07-30T12:44:05;4.15;;;1.25;;
54191;SDS011;40101;53.002;6.488;2023-07-30T12:46:31;6.57;;;1.17;;
54191;SDS011;40101;53.002;6.488;2023-07-30T12:48:57;3.03;;;1.35;;
54191;SDS011;40101;53.002;6.488;2023-07-30T12:51:29;8.15;;;1.20;;
54191;SDS011;40101;53.002;6.488;2023-07-30T12:53:55;3.35;;;1.17;;
54191;SDS011;40101;53.002;6.488;2023-07-30T12:56:21;3.45;;;1.27;;
54191;SDS011;40101;53.002;6.488;2023-07-30T12:58:47;4.13;;;1.02;;
54191;SDS011;40101;53.002;6.488;2023-07-30T13:01:12;3.38;;;1.38;;
54191;SDS011;40101;53.002;6.488;2023-07-30T13:03:38;6.18;;;1.52;;
54191;SDS011;40101;53.002;6.488;2023-07-30T13:06:04;5.88;;;1.75;;
54191;SDS011;40101;53.002;6.488;2023-07-30T13:08:29;4.20;;;1.52;;
54191;SDS011;40101;53.002;6.488;2023-07-30T13:10:55;6.72;;;1.98;;
54191;SDS011;40101;53.002;6.488;2023-07-30T13:13:21;6.15;;;1.40;;
54191;SDS011;40101;53.002;6.488;2023-07-30T13:15:47;10.02;;;2.40;;
54191;SDS011;40101;53.002;6.488;2023-07-30T13:18:13;8.07;;;1.60;;
54191;SDS011;40101;53.002;6.488;2023-07-30T13:20:39;6.75;;;1.52;;
54191;SDS011;40101;53.002;6.488;2023-07-30T13:23:04;4.82;;;1.20;;
54191;SDS011;40101;53.002;6.488;2023-07-30T13:25:30;7.57;;;1.30;;
54191;SDS011;40101;53.002;6.488;2023-07-30T13:27:56;15.35;;;2.38;;
54191;SDS011;40101;53.002;6.488;2023-07-30T13:30:21;5.38;;;1.50;;
54191;SDS011;40101;53.002;6.488;2023-07-30T13:32:47;5.10;;;1.65;;
54191;SDS011;40101;53.002;6.488;2023-07-30T13:35:13;5.70;;;1.23;;
54191;SDS011;40101;53.002;6.488;2023-07-30T13:37:38;7.55;;;1.50;;
54191;SDS011;40101;53.002;6.488;2023-07-30T13:40:04;6.43;;;1.38;;
54191;SDS011;40101;53.002;6.488;2023-07-30T13:42:30;8.02;;;1.75;;
54191;SDS011;40101;53.002;6.488;2023-07-30T13:44:56;11.40;;;2.50;;
54191;SDS011;40101;53.002;6.488;2023-07-30T13:47:22;9.32;;;2.60;;
54191;SDS011;40101;53.002;6.488;2023-07-30T13:49:48;7.97;;;2.33;;
54191;SDS011;40101;53.002;6.488;2023-07-30T13:52:14;7.53;;;1.30;;
54191;SDS011;40101;53.002;6.488;2023-07-30T13:54:40;6.05;;;2.08;;
54191;SDS011;40101;53.002;6.488;2023-07-30T13:57:07;8.05;;;1.63;;
54191;SDS011;40101;53.002;6.488;2023-07-30T13:59:32;5.47;;;1.20;;
54191;SDS011;40101;53.002;6.488;2023-07-30T14:01:58;6.32;;;1.40;;
54191;SDS011;40101;53.002;6.488;2023-07-30T14:04:24;5.25;;;1.15;;
54191;SDS011;40101;53.002;6.488;2023-07-30T14:06:49;6.22;;;1.30;;
54191;SDS011;40101;53.002;6.488;2023-07-30T14:09:15;6.82;;;1.48;;
54191;SDS011;40101;53.002;6.488;2023-07-30T14:11:41;5.32;;;1.27;;
54191;SDS011;40101;53.002;6.488;2023-07-30T14:14:10;5.15;;;1.05;;
54191;SDS011;40101;53.002;6.488;2023-07-30T14:16:35;4.78;;;1.33;;
54191;SDS011;40101;53.002;6.488;2023-07-30T14:19:01;5.82;;;1.13;;
54191;SDS011;40101;53.002;6.488;2023-07-30T14:21:27;4.13;;;0.82;;
54191;SDS011;40101;53.002;6.488;2023-07-30T14:23:53;8.77;;;1.48;;
54191;SDS011;40101;53.002;6.488;2023-07-30T14:26:18;7.60;;;1.33;;
54191;SDS011;40101;53.002;6.488;2023-07-30T14:28:44;4.22;;;1.50;;
54191;SDS011;40101;53.002;6.488;2023-07-30T14:31:10;7.50;;;1.23;;
54191;SDS011;40101;53.002;6.488;2023-07-30T14:33:36;7.03;;;1.27;;
54191;SDS011;40101;53.002;6.488;2023-07-30T14:36:01;4.97;;;0.95;;
54191;SDS011;40101;53.002;6.488;2023-07-30T14:38:28;6.60;;;1.10;;
54191;SDS011;40101;53.002;6.488;2023-07-30T14:40:56;4.65;;;1.10;;
54191;SDS011;40101;53.002;6.488;2023-07-30T14:43:21;10.02;;;2.20;;
54191;SDS011;40101;53.002;6.488;2023-07-30T14:45:48;4.07;;;1.10;;
54191;SDS011;40101;53.002;6.488;2023-07-30T14:48:14;4.13;;;1.42;;